createdAt,value
2022-08-03T00:00:40.044Z,100370.71
2022-08-03T00:03:08.866Z,100369.73
2022-08-03T00:05:39.188Z,100370.16
2022-08-03T00:08:08.993Z,100370.44
2022-08-03T00:10:39.464Z,100371.22
2022-08-03T00:13:08.254Z,100373.82
2022-08-03T00:15:37.123Z,100370.14
2022-08-03T00:18:05.852Z,100366.77
2022-08-03T00:20:34.605Z,100372.59
2022-08-03T00:23:03.823Z,100370.50
2022-08-03T00:25:32.637Z,100365.79
2022-08-03T00:28:01.381Z,100365.38
2022-08-03T00:30:30.959Z,100367.97
2022-08-03T00:33:00.162Z,100369.41
2022-08-03T00:35:50.078Z,100366.88
2022-08-03T00:38:00.231Z,100371.02
2022-08-03T00:40:29.016Z,100366.17
2022-08-03T00:42:59.298Z,100377.61
2022-08-03T00:45:29.547Z,100375.18
2022-08-03T00:47:59.193Z,100377.49
2022-08-03T00:50:32.432Z,100378.47
2022-08-03T00:53:01.827Z,100377.28
2022-08-03T00:55:30.641Z,100371.52
2022-08-03T00:57:59.550Z,100369.97
2022-08-03T01:00:29.380Z,100370.95
2022-08-03T01:02:58.200Z,100368.56
2022-08-03T01:05:27.004Z,100364.91
2022-08-03T01:08:03.112Z,100369.41
2022-08-03T01:10:39.154Z,100369.68
2022-08-03T01:13:59.919Z,100369.01
2022-08-03T01:16:06.103Z,100365.50
2022-08-03T01:18:38.994Z,100368.09
2022-08-03T01:21:09.288Z,100367.25
2022-08-03T01:23:50.164Z,100367.38
2022-08-03T01:26:20.411Z,100360.86
2022-08-03T01:28:50.743Z,100357.84
2022-08-03T01:31:20.973Z,100357.62
2022-08-03T01:33:52.477Z,100365.27
2022-08-03T01:36:22.724Z,100358.60
2022-08-03T01:38:56.309Z,100351.86
2022-08-03T01:41:29.358Z,100355.86
2022-08-03T01:44:26.968Z,100351.86
2022-08-03T01:46:29.609Z,100355.50
2022-08-03T01:48:59.595Z,100353.28
2022-08-03T01:52:03.894Z,100352.44
2022-08-03T01:54:01.519Z,100350.89
2022-08-03T01:56:31.730Z,100351.38
2022-08-03T01:59:01.843Z,100347.00
2022-08-03T02:02:19.557Z,100349.17
2022-08-03T02:04:02.079Z,100347.27
2022-08-03T02:07:00.330Z,100346.92
2022-08-03T02:09:03.212Z,100345.64
2022-08-03T02:11:32.648Z,100345.28
2022-08-03T02:14:03.285Z,100341.30
2022-08-03T02:16:35.045Z,100343.11
2022-08-03T02:19:05.755Z,100348.09
2022-08-03T02:21:57.305Z,100342.05
2022-08-03T02:24:08.078Z,100342.19
2022-08-03T02:26:38.325Z,100338.36
2022-08-03T02:29:08.589Z,100341.34
2022-08-03T02:31:39.943Z,100340.09
2022-08-03T02:34:10.181Z,100344.45
2022-08-03T02:36:40.119Z,100342.48
2022-08-03T02:39:25.720Z,100344.88
2022-08-03T02:41:57.360Z,100346.30
2022-08-03T02:44:28.955Z,100341.18
2022-08-03T02:47:00.254Z,100338.14
2022-08-03T02:49:41.061Z,100341.55
2022-08-03T02:52:01.383Z,100336.94
2022-08-03T02:54:31.546Z,100341.72
2022-08-03T02:57:01.404Z,100341.72
2022-08-03T02:59:31.824Z,100343.89
2022-08-03T03:02:01.836Z,100345.37
2022-08-03T03:04:33.169Z,100348.08
2022-08-03T03:07:03.741Z,100350.33
2022-08-03T03:09:40.512Z,100346.41
2022-08-03T03:12:04.905Z,100354.48
2022-08-03T03:14:34.958Z,100362.48
2022-08-03T03:17:04.285Z,100357.71
2022-08-03T03:19:34.360Z,100354.76
2022-08-03T03:22:04.832Z,100355.33
2022-08-03T03:24:34.053Z,100353.78
2022-08-03T03:27:03.354Z,100357.22
2022-08-03T03:29:37.058Z,100351.58
2022-08-03T03:32:05.840Z,100346.45
2022-08-03T03:34:37.290Z,100342.20
2022-08-03T03:37:07.530Z,100351.79
2022-08-03T03:39:36.519Z,100352.23
2022-08-03T03:42:05.822Z,100347.93
2022-08-03T03:44:34.724Z,100355.67
2022-08-03T03:47:03.626Z,100350.83
2022-08-03T03:49:33.138Z,100345.99
2022-08-03T03:52:02.100Z,100345.92
2022-08-03T03:54:41.329Z,100344.73
2022-08-03T03:57:13.848Z,100345.13
2022-08-03T03:59:42.991Z,100343.58
2022-08-03T04:02:12.418Z,100350.34
2022-08-03T04:04:59.311Z,100352.42
2022-08-03T04:07:46.484Z,100360.72
2022-08-03T04:10:34.773Z,100363.05
2022-08-03T04:13:04.991Z,100359.44
2022-08-03T04:15:34.914Z,100355.19
2022-08-03T04:18:04.723Z,100363.92
2022-08-03T04:20:34.970Z,100362.62
2022-08-03T04:23:05.184Z,100370.06
2022-08-03T04:25:36.662Z,100369.70
2022-08-03T04:28:29.745Z,100370.67
2022-08-03T04:30:38.493Z,100373.98
2022-08-03T04:33:08.381Z,100371.92
2022-08-03T04:36:02.249Z,100371.78
2022-08-03T04:38:08.582Z,100372.41
2022-08-03T04:40:38.303Z,100374.59
2022-08-03T04:43:07.231Z,100374.53
2022-08-03T04:45:36.640Z,100374.59
2022-08-03T04:48:05.727Z,100371.80
2022-08-03T04:50:34.926Z,100380.07
2022-08-03T04:53:07.399Z,100378.81
2022-08-03T04:55:36.578Z,100377.55
2022-08-03T04:58:07.776Z,100376.47
2022-08-03T05:00:36.609Z,100378.84
2022-08-03T05:03:19.593Z,100377.16
2022-08-03T05:05:49.926Z,100377.30
2022-08-03T05:08:11.224Z,100372.69
2022-08-03T05:10:37.695Z,100370.59
2022-08-03T05:13:06.504Z,100366.75
2022-08-03T05:15:36.244Z,100368.84
2022-08-03T05:18:09.580Z,100370.62
2022-08-03T05:20:37.220Z,100362.97
2022-08-03T05:23:05.974Z,100367.96
2022-08-03T05:25:35.003Z,100365.04
2022-08-03T05:28:03.839Z,100364.28
2022-08-03T05:30:34.310Z,100361.92
2022-08-03T05:33:03.947Z,100359.19
2022-08-03T05:35:57.302Z,100362.09
2022-08-03T05:38:06.111Z,100366.17
2022-08-03T05:40:36.465Z,100366.76
2022-08-03T05:43:06.054Z,100363.17
2022-08-03T05:45:34.940Z,100367.81
2022-08-03T05:48:03.764Z,100365.26
2022-08-03T05:50:32.586Z,100369.75
2022-08-03T05:53:01.453Z,100371.48
2022-08-03T05:55:30.429Z,100375.67
2022-08-03T05:57:59.318Z,100376.50
2022-08-03T06:00:28.125Z,100371.25
2022-08-03T06:02:57.385Z,100381.23
2022-08-03T06:05:27.817Z,100386.05
2022-08-03T06:07:56.537Z,100386.74
2022-08-03T06:10:35.550Z,100387.49
2022-08-03T06:12:55.658Z,100378.18
2022-08-03T06:15:24.416Z,100380.73
2022-08-03T06:17:53.207Z,100381.04
2022-08-03T06:20:22.211Z,100384.80
2022-08-03T06:23:00.949Z,100381.31
2022-08-03T06:25:23.134Z,100385.24
2022-08-03T06:27:51.846Z,100382.25
2022-08-03T06:30:21.416Z,100379.02
2022-08-03T06:32:51.651Z,100384.89
2022-08-03T06:35:21.147Z,100383.11
2022-08-03T06:37:51.620Z,100389.43
2022-08-03T06:40:24.584Z,100385.11
2022-08-03T06:42:53.678Z,100373.74
2022-08-03T06:45:22.491Z,100375.45
2022-08-03T06:47:52.731Z,100379.52
2022-08-03T06:50:25.986Z,100373.55
2022-08-03T06:52:52.070Z,100376.74
2022-08-03T06:55:20.947Z,100380.16
2022-08-03T06:57:49.788Z,100383.78
2022-08-03T07:00:19.092Z,100374.69
2022-08-03T07:02:47.988Z,100380.95
2022-08-03T07:05:18.420Z,100377.78
2022-08-03T07:07:47.258Z,100371.98
2022-08-03T07:10:16.000Z,100375.45
2022-08-03T07:12:52.740Z,100372.78
2022-08-03T07:15:20.262Z,100367.03
2022-08-03T07:17:48.527Z,100368.16
2022-08-03T07:20:18.280Z,100375.56
2022-08-03T07:22:47.037Z,100366.64
2022-08-03T07:25:16.408Z,100370.29
2022-08-03T07:27:50.045Z,100367.66
2022-08-03T07:30:16.664Z,100368.12
2022-08-03T07:32:50.194Z,100366.16
2022-08-03T07:35:24.944Z,100363.14
2022-08-03T07:37:54.564Z,100360.20
2022-08-03T07:40:17.718Z,100362.02
2022-08-03T07:42:46.499Z,100359.73
2022-08-03T07:45:16.681Z,100368.84
2022-08-03T07:47:46.194Z,100365.26
2022-08-03T07:50:16.210Z,100360.03
2022-08-03T07:52:50.867Z,100367.74
2022-08-03T07:55:21.037Z,100362.86
2022-08-03T07:57:51.254Z,100360.78
2022-08-03T08:00:20.746Z,100360.66
2022-08-03T08:02:49.540Z,100357.80
2022-08-03T08:05:18.285Z,100365.16
2022-08-03T08:07:50.714Z,100367.11
2022-08-03T08:10:17.414Z,100360.13
2022-08-03T08:12:46.276Z,100357.55
2022-08-03T08:15:15.755Z,100365.51
2022-08-03T08:17:49.119Z,100366.08
2022-08-03T08:20:27.818Z,100361.06
2022-08-03T08:22:50.585Z,100355.23
2022-08-03T08:25:21.126Z,100357.87
2022-08-03T08:28:22.541Z,100359.49
2022-08-03T08:30:23.063Z,100357.68
2022-08-03T08:32:52.280Z,100357.30
2022-08-03T08:35:21.105Z,100352.44
2022-08-03T08:37:51.484Z,100345.78
2022-08-03T08:40:23.581Z,100352.59
2022-08-03T08:43:00.437Z,100358.33
2022-08-03T08:45:23.926Z,100347.75
2022-08-03T08:47:55.771Z,100352.73
2022-08-03T08:50:27.233Z,100352.36
2022-08-03T08:52:55.826Z,100348.58
2022-08-03T08:55:24.757Z,100345.28
2022-08-03T08:58:07.176Z,100345.67
2022-08-03T09:00:35.981Z,100355.13
2022-08-03T09:03:05.049Z,100347.39
2022-08-03T09:05:55.024Z,100348.86
2022-08-03T09:08:06.799Z,100338.47
2022-08-03T09:10:36.101Z,100342.95
2022-08-03T09:13:09.413Z,100349.41
2022-08-03T09:15:39.194Z,100343.45
2022-08-03T09:18:09.507Z,100342.64
2022-08-03T09:20:38.498Z,100335.88
2022-08-03T09:23:58.862Z,100342.61
2022-08-03T09:25:43.262Z,100340.77
2022-08-03T09:28:13.080Z,100345.86
2022-08-03T09:30:44.692Z,100345.37
2022-08-03T09:33:16.358Z,100340.39
2022-08-03T09:35:55.065Z,100333.95
2022-08-03T09:38:18.524Z,100335.17
2022-08-03T09:40:47.328Z,100329.61
2022-08-03T09:43:18.576Z,100339.87
2022-08-03T09:45:48.525Z,100327.02
2022-08-03T09:48:24.667Z,100333.40
2022-08-03T09:50:58.715Z,100325.02
2022-08-03T09:53:26.839Z,100329.30
2022-08-03T09:56:34.314Z,100323.56
2022-08-03T09:58:32.107Z,100323.83
2022-08-03T10:01:05.441Z,100321.17
2022-08-03T10:03:36.068Z,100320.10
2022-08-03T10:06:28.888Z,100326.98
2022-08-03T10:09:07.351Z,100314.03
2022-08-03T10:11:41.236Z,100318.14
2022-08-03T10:14:08.513Z,100312.58
2022-08-03T10:16:38.812Z,100310.33
2022-08-03T10:19:09.798Z,100306.30
2022-08-03T10:21:39.512Z,100308.86
2022-08-03T10:24:11.738Z,100300.69
2022-08-03T10:26:50.035Z,100302.20
2022-08-03T10:29:12.986Z,100305.93
2022-08-03T10:31:57.336Z,100299.69
2022-08-03T10:34:18.351Z,100304.91
2022-08-03T10:36:48.539Z,100306.55
2022-08-03T10:39:18.788Z,100299.31
2022-08-03T10:41:49.226Z,100304.50
2022-08-03T10:44:21.770Z,100299.81
2022-08-03T10:46:50.979Z,100303.80
2022-08-03T10:49:33.885Z,100291.80
2022-08-03T10:51:52.550Z,100290.38
2022-08-03T10:54:58.745Z,100295.57
2022-08-03T10:57:44.169Z,100294.10
2022-08-03T11:00:15.547Z,100294.18
2022-08-03T11:03:02.084Z,100290.66
2022-08-03T11:05:32.343Z,100291.59
2022-08-03T11:08:19.968Z,100288.45
2022-08-03T11:10:50.252Z,100288.14
2022-08-03T11:13:20.753Z,100285.16
2022-08-03T11:15:50.855Z,100283.77
2022-08-03T11:18:19.731Z,100278.81
2022-08-03T11:20:49.785Z,100285.66
2022-08-03T11:23:19.675Z,100289.98
2022-08-03T11:26:08.255Z,100287.45
2022-08-03T11:28:38.823Z,100286.27
2022-08-03T11:31:48.827Z,100282.23
2022-08-03T11:34:07.860Z,100280.09
2022-08-03T11:36:54.808Z,100274.18
2022-08-03T11:39:23.535Z,100270.26
2022-08-03T11:41:52.345Z,100272.73
2022-08-03T11:44:39.130Z,100271.56
2022-08-03T11:47:09.629Z,100278.80
2022-08-03T11:49:40.312Z,100275.64
2022-08-03T11:52:09.662Z,100276.07
2022-08-03T11:54:38.558Z,100270.97
2022-08-03T11:57:07.442Z,100266.25
2022-08-03T11:59:38.987Z,100266.72
2022-08-03T12:02:08.527Z,100268.98
2022-08-03T12:04:53.419Z,100265.46
2022-08-03T12:08:02.746Z,100256.39
2022-08-03T12:10:08.256Z,100256.66
2022-08-03T12:12:37.365Z,100244.02
2022-08-03T12:15:06.792Z,100250.41
2022-08-03T12:17:37.999Z,100239.56
2022-08-03T12:20:07.912Z,100248.84
2022-08-03T12:22:39.623Z,100248.49
2022-08-03T12:25:09.108Z,100244.34
2022-08-03T12:27:37.903Z,100244.03
2022-08-03T12:30:06.950Z,100246.98
2022-08-03T12:32:35.761Z,100239.78
2022-08-03T12:35:07.180Z,100241.66
2022-08-03T12:37:36.390Z,100235.28
2022-08-03T12:40:10.468Z,100236.53
2022-08-03T12:42:38.760Z,100229.67
2022-08-03T12:45:25.770Z,100236.16
2022-08-03T12:47:55.897Z,100240.47
2022-08-03T12:50:32.133Z,100241.41
2022-08-03T12:53:01.562Z,100234.15
2022-08-03T12:55:57.005Z,100238.23
2022-08-03T12:58:09.640Z,100232.23
2022-08-03T13:00:38.802Z,100229.12
2022-08-03T13:03:39.663Z,100225.98
2022-08-03T13:05:46.145Z,100225.98
2022-08-03T13:08:20.010Z,100221.52
2022-08-03T13:10:49.266Z,100225.09
2022-08-03T13:13:18.112Z,100225.10
2022-08-03T13:15:47.946Z,100223.19
2022-08-03T13:18:17.549Z,100222.54
2022-08-03T13:20:46.412Z,100225.35
2022-08-03T13:23:22.189Z,100220.39
2022-08-03T13:25:55.269Z,100224.86
2022-08-03T13:28:16.419Z,100225.52
2022-08-03T13:30:45.315Z,100223.32
2022-08-03T13:33:14.228Z,100220.20
2022-08-03T13:35:42.896Z,100217.72
2022-08-03T13:38:11.846Z,100212.17
2022-08-03T13:40:41.792Z,100224.89
2022-08-03T13:43:10.897Z,100225.30
2022-08-03T13:45:40.016Z,100220.86
2022-08-03T13:48:08.839Z,100221.69
2022-08-03T13:50:42.551Z,100221.30
2022-08-03T13:53:08.571Z,100217.44
2022-08-03T13:55:37.898Z,100214.17
2022-08-03T13:58:08.318Z,100214.83
2022-08-03T14:00:37.063Z,100215.41
2022-08-03T14:03:13.310Z,100208.66
2022-08-03T14:05:38.542Z,100208.26
2022-08-03T14:08:07.934Z,100210.91
2022-08-03T14:10:41.306Z,100206.97
2022-08-03T14:13:11.363Z,100198.88
2022-08-03T14:15:41.513Z,100197.86
2022-08-03T14:18:15.765Z,100196.09
2022-08-03T14:20:50.149Z,100192.29
2022-08-03T14:23:13.089Z,100199.25
2022-08-03T14:25:51.514Z,100192.07
2022-08-03T14:28:13.547Z,100193.59
2022-08-03T14:30:42.343Z,100193.03
2022-08-03T14:33:11.125Z,100194.05
2022-08-03T14:35:41.183Z,100190.77
2022-08-03T14:38:10.059Z,100188.52
2022-08-03T14:40:46.914Z,100184.14
2022-08-03T14:43:17.458Z,100187.00
2022-08-03T14:45:47.097Z,100185.89
2022-08-03T14:50:34.226Z,100191.15
2022-08-03T14:50:51.319Z,100185.48
2022-08-03T14:53:17.719Z,100185.58
2022-08-03T14:55:50.264Z,100182.30
2022-08-03T14:58:20.801Z,100178.40
2022-08-03T15:00:49.941Z,100173.36
2022-08-03T15:03:21.263Z,100171.86
2022-08-03T15:05:50.633Z,100172.99
2022-08-03T15:08:19.716Z,100170.75
2022-08-03T15:10:49.831Z,100168.48
2022-08-03T15:13:19.964Z,100162.70
2022-08-03T15:15:50.122Z,100163.42
2022-08-03T15:18:20.105Z,100159.50
2022-08-03T15:20:50.582Z,100156.70
2022-08-03T15:23:19.872Z,100161.98
2022-08-03T15:26:03.645Z,100157.41
2022-08-03T15:28:20.469Z,100158.73
2022-08-03T15:30:49.199Z,100151.95
2022-08-03T15:33:18.320Z,100152.83
2022-08-03T15:35:47.652Z,100154.83
2022-08-03T15:38:16.667Z,100152.48
2022-08-03T15:40:45.648Z,100148.73
2022-08-03T15:43:14.545Z,100145.23
2022-08-03T15:45:44.979Z,100143.52
2022-08-03T15:48:14.221Z,100143.09
2022-08-03T15:50:43.740Z,100139.92
2022-08-03T15:53:12.542Z,100142.69
2022-08-03T15:55:41.289Z,100146.48
2022-08-03T15:59:03.927Z,100144.58
2022-08-03T16:00:41.129Z,100142.61
2022-08-03T16:03:10.432Z,100138.39
2022-08-03T16:05:39.166Z,100134.93
2022-08-03T16:08:13.234Z,100133.17
2022-08-03T16:10:41.634Z,100139.20
2022-08-03T16:13:10.361Z,100135.38
2022-08-03T16:15:39.088Z,100129.82
2022-08-03T16:18:08.113Z,100118.94
2022-08-03T16:20:36.915Z,100119.57
2022-08-03T16:23:11.632Z,100122.65
2022-08-03T16:25:37.094Z,100116.20
2022-08-03T16:28:12.775Z,100117.88
2022-08-03T16:30:36.389Z,100118.58
2022-08-03T16:33:05.182Z,100115.16
2022-08-03T16:35:33.994Z,100113.30
2022-08-03T16:38:07.801Z,100120.02
2022-08-03T16:40:33.508Z,100115.95
2022-08-03T16:43:18.941Z,100111.01
2022-08-03T16:45:46.740Z,100113.92
2022-08-03T16:48:16.227Z,100111.68
2022-08-03T16:50:45.540Z,100110.88
2022-08-03T16:53:16.898Z,100116.42
2022-08-03T16:55:52.332Z,100112.95
2022-08-03T16:58:19.238Z,100114.10
2022-08-03T17:00:51.059Z,100117.91
2022-08-03T17:03:24.249Z,100121.41
2022-08-03T17:05:53.319Z,100124.73
2022-08-03T17:08:26.617Z,100114.81
2022-08-03T17:10:54.204Z,100113.66
2022-08-03T17:13:39.285Z,100122.97
2022-08-03T17:15:58.046Z,100128.44
2022-08-03T17:18:28.926Z,100129.52
2022-08-03T17:20:59.211Z,100128.06
2022-08-03T17:23:41.525Z,100126.54
2022-08-03T17:26:20.889Z,100125.19
2022-08-03T17:28:51.914Z,100122.66
2022-08-03T17:31:23.316Z,100128.63
2022-08-03T17:33:54.664Z,100131.16
2022-08-03T17:36:23.440Z,100131.64
2022-08-03T17:38:56.613Z,100139.13
2022-08-03T17:41:26.468Z,100131.02
2022-08-03T17:44:15.687Z,100132.57
2022-08-03T17:46:26.818Z,100135.87
2022-08-03T17:48:57.101Z,100133.27
2022-08-03T17:51:32.001Z,100128.88
2022-08-03T17:54:18.176Z,100139.47
2022-08-03T17:56:46.790Z,100136.66
2022-08-03T17:59:17.112Z,100137.28
2022-08-03T18:02:22.311Z,100142.80
2022-08-03T18:04:41.668Z,100145.97
2022-08-03T18:07:12.802Z,100142.47
2022-08-03T18:10:03.426Z,100144.97
2022-08-03T18:12:14.591Z,100141.13
2022-08-03T18:15:00.676Z,100144.41
2022-08-03T18:17:19.680Z,100153.44
2022-08-03T18:20:03.606Z,100150.87
2022-08-03T18:22:21.100Z,100151.92
2022-08-03T18:24:51.309Z,100152.69
2022-08-03T18:27:21.841Z,100158.98
2022-08-03T18:29:51.790Z,100158.59
2022-08-03T18:32:20.659Z,100169.41
2022-08-03T18:34:53.106Z,100170.70
2022-08-03T18:37:26.293Z,100172.14
2022-08-03T18:39:57.982Z,100175.53
2022-08-03T18:42:27.218Z,100178.88
2022-08-03T18:44:57.077Z,100173.32
2022-08-03T18:47:50.547Z,100184.75
2022-08-03T18:50:09.655Z,100187.80
2022-08-03T18:52:40.322Z,100183.88
2022-08-03T18:55:20.287Z,100181.89
2022-08-03T18:57:44.461Z,100184.65
2022-08-03T19:00:16.731Z,100186.07
2022-08-03T19:02:52.176Z,100190.22
2022-08-03T19:05:24.675Z,100189.59
2022-08-03T19:07:58.283Z,100190.41
2022-08-03T19:10:29.411Z,100189.63
2022-08-03T19:13:01.334Z,100197.30
2022-08-03T19:18:08.880Z,100194.38
2022-08-03T19:20:34.912Z,100191.50
2022-08-03T19:23:04.121Z,100194.35
2022-08-03T19:25:36.051Z,100195.00
2022-08-03T19:28:05.940Z,100199.83
2022-08-03T19:30:38.806Z,100197.20
2022-08-03T19:33:08.084Z,100197.59
2022-08-03T19:35:49.740Z,100197.36
2022-08-03T19:38:09.788Z,100193.31
2022-08-03T19:40:42.071Z,100198.10
2022-08-03T19:43:12.457Z,100201.06
2022-08-03T19:46:05.973Z,100198.81
2022-08-03T19:48:15.485Z,100199.73
2022-08-03T19:50:45.477Z,100195.50
2022-08-03T19:53:15.317Z,100203.71
2022-08-03T19:55:48.861Z,100200.11
2022-08-03T19:58:17.813Z,100208.00
2022-08-03T20:00:48.529Z,100208.45
2022-08-03T20:03:21.841Z,100202.36
2022-08-03T20:05:52.230Z,100212.98
2022-08-03T20:08:19.054Z,100210.58
2022-08-03T20:10:49.746Z,100210.31
2022-08-03T20:13:20.563Z,100217.42
2022-08-03T20:15:53.536Z,100210.03
2022-08-03T20:18:22.305Z,100215.47
2022-08-03T20:20:52.949Z,100217.33
2022-08-03T20:23:22.704Z,100208.82
2022-08-03T20:25:58.619Z,100220.84
2022-08-03T20:28:34.177Z,100218.67
2022-08-03T20:31:02.885Z,100216.37
2022-08-03T20:33:46.725Z,100220.55
2022-08-03T20:36:02.170Z,100219.02
2022-08-03T20:38:30.901Z,100225.55
2022-08-03T20:41:00.391Z,100225.25
2022-08-03T20:43:29.207Z,100222.45
2022-08-03T20:45:59.605Z,100223.42
2022-08-03T20:48:28.513Z,100221.30
2022-08-03T20:50:57.838Z,100220.60
2022-08-03T20:53:57.337Z,100224.69
2022-08-03T20:56:02.303Z,100220.48
2022-08-03T20:58:29.401Z,100224.92
2022-08-03T21:00:58.387Z,100226.23
2022-08-03T21:03:41.255Z,100227.42
2022-08-03T21:05:59.083Z,100226.89
2022-08-03T21:08:29.712Z,100232.27
2022-08-03T21:10:59.135Z,100226.05
2022-08-03T21:13:10.126Z,100195.12
2022-08-03T21:13:30.283Z,100227.14
2022-08-03T21:16:06.261Z,100228.16
2022-08-03T21:18:31.863Z,100230.56
2022-08-03T21:21:01.899Z,100230.15
2022-08-03T21:23:35.180Z,100229.76
2022-08-03T21:26:03.489Z,100227.34
2022-08-03T21:28:32.309Z,100223.50
2022-08-03T21:31:01.826Z,100223.73
2022-08-03T21:33:30.824Z,100229.59
2022-08-03T21:36:00.208Z,100230.45
2022-08-03T21:38:30.501Z,100238.27
2022-08-03T21:41:00.229Z,100236.77
2022-08-03T21:43:29.043Z,100231.26
2022-08-03T21:46:05.196Z,100240.59
2022-08-03T21:48:38.314Z,100238.73
2022-08-03T21:51:08.540Z,100234.61
2022-08-03T21:54:03.900Z,100238.25
2022-08-03T21:56:09.606Z,100236.06
2022-08-03T21:58:57.756Z,100230.73
2022-08-03T22:01:27.275Z,100230.25
2022-08-03T22:03:58.396Z,100230.99
2022-08-03T22:06:30.049Z,100232.03
2022-08-03T22:08:59.163Z,100235.05
2022-08-03T22:11:28.217Z,100237.39
2022-08-03T22:13:58.093Z,100238.25
2022-08-03T22:16:26.922Z,100232.02
2022-08-03T22:18:55.719Z,100232.72
2022-08-03T22:21:27.692Z,100232.09
2022-08-03T22:23:57.869Z,100237.68
2022-08-03T22:26:34.743Z,100234.17
2022-08-03T22:29:01.818Z,100237.89
2022-08-03T22:31:57.784Z,100238.56
2022-08-03T22:34:01.136Z,100244.16
2022-08-03T22:36:34.719Z,100242.66
2022-08-03T22:39:03.614Z,100234.10
2022-08-03T22:41:32.581Z,100237.45
2022-08-03T22:44:04.468Z,100236.49
2022-08-03T22:46:33.020Z,100239.00
2022-08-03T22:49:02.351Z,100241.52
2022-08-03T22:51:32.091Z,100240.02
2022-08-03T22:54:01.209Z,100241.86
2022-08-03T22:56:32.141Z,100239.55
2022-08-03T22:59:01.553Z,100240.21
2022-08-03T23:01:33.449Z,100240.52
2022-08-03T23:04:03.954Z,100235.34
2022-08-03T23:06:39.396Z,100235.97
2022-08-03T23:09:09.735Z,100227.09
2022-08-03T23:11:45.345Z,100233.31
2022-08-03T23:14:15.231Z,100232.81
2022-08-03T23:16:45.033Z,100234.48
2022-08-03T23:19:17.098Z,100231.62
2022-08-03T23:21:53.872Z,100240.32
2022-08-03T23:24:26.147Z,100245.35
2022-08-03T23:26:48.547Z,100247.22
2022-08-03T23:29:17.877Z,100247.89
2022-08-03T23:31:47.605Z,100246.36
2022-08-03T23:34:35.754Z,100245.34
2022-08-03T23:37:07.009Z,100242.50
2022-08-03T23:39:37.975Z,100243.83
2022-08-03T23:42:06.984Z,100243.31
2022-08-03T23:44:37.519Z,100243.31
2022-08-03T23:47:06.501Z,100245.16
2022-08-03T23:49:36.140Z,100246.13
2022-08-03T23:52:10.398Z,100251.63
2022-08-03T23:54:46.547Z,100252.95
2022-08-03T23:57:32.158Z,100252.63
